Lapwai, ID

11:03 PM PDT on June 30, 2015 (GMT -0700)
Harvest Vista/Pheasant Trail Estates @ Schaub Ranch | | Change Station
CLOSE
Current Station
Personal Weather Station
Location: Lewiston, ID
Elevation: 1435 ft
Nearby Weather Stations

Elev 1435 ft 46.41 °N, 116.91 °W | Updated 9 seconds ago

Clear
Clear
75.9 °F
Feels Like 78 °F
N
0.0
Wind Variable Wind from East
Gusts 4.0 mph

Today
High -- | Low -- °F
--% Chance of Precip.
Yesterday
High -- | Low -- °F
Precip. -- in
4:57 AM 8:43 PM
Waxing Gibbous, 99% visible
Pressure 29.87 in
Visibility 10.0 miles
Clouds Clear
Heat Index 78 °F
Dew Point 51 °F
Humidity 42%
Rainfall 0.00 in
Snow Depth Not available.
UV 0 out of 12
Pollen 6.90 out of 12
Air Quality Not available.
Flu Activity Not available.
METAR KLWS 010556Z AUTO 24006KT 10SM CLR 30/06 A2992 RMK AO2 SLP115 T03000061 10378 20294 53013 $

More Conditions Fewer Conditions

Pressure 29.87 in
Visibility 10.0 miles
Clouds Clear
Heat Index 78 °F
Dew Point 51 °F
Humidity 42%
Rainfall 0.00 in
Snow Depth Not available.
UV 0 out of 12
Pollen 6.90 out of 12
Air Quality Not available.
Flu Activity Not available.
METAR KLWS 010556Z AUTO 24006KT 10SM CLR 30/06 A2992 RMK AO2 SLP115 T03000061 10378 20294 53013 $

More Conditions Fewer Conditions

10-Day Weather Forecast

×

Almanac

Astronomy

Jun. 30, 2015 Rise Set
Actual Time
Civil Twilight
Nautical Twilight
Astronomical Twilight
Moon
Length of Visible Light
Length of Day
Tomorrow will be .
, % of the Moon is Illuminated

Today's Extremes

State Highs State Lows

Community

WunderPhotos

Upload Photos

1,834,156 photos uploaded!

WunderBlogs® & News

Nearby

Air Quality

  Air Quality AQ Index Pollutant
Not available.

Snow Depth

Station Depth Elevation

Earthquake Activity

City Distance Mag. Time & Date
Minimum magnitude displayed is 2.5.

Coastal Water Temperatures

Place Temperature

Stations

Nearby Weather Stations

Station Location Temp. Windchill Dew Point Humidity Wind Precip. Elev Updated Type